This is the latest recevied weather packets stored in our database for station/object KG0HG. If no packets are shown the sender has not sent any weather packets the latest 10 day(s).
| Time | Temp. | Humidity | Pressure | Rain* | Wind** | Luminosity | Snow |
|---|---|---|---|---|---|---|---|
| 1777837640 | 25.56° C | 39% | 1010.3 hPa | 0 mm | - | 69 W/m² | - |
| 1777837335 | 25.56° C | 39% | 1010.5 hPa | 0 mm | - | 137 W/m² | - |
| 1777837032 | 25° C | 39% | 1010.6 hPa | 0 mm | - | 257 W/m² | - |
| 1777836728 | 26.11° C | 39% | 1010.7 hPa | 0 mm | - | 68 W/m² | - |
| 1777836423 | 25.56° C | 39% | 1010.8 hPa | 0 mm | - | 67 W/m² | - |
| 1777836119 | 25° C | 39% | 1010.8 hPa | 0 mm | - | 420 W/m² | - |
| 1777835815 | 24.44° C | 39% | 1010.7 hPa | 0 mm | - | 655 W/m² | - |
| 1777835513 | 24.44° C | 39% | 1011.1 hPa | 0 mm | - | 702 W/m² | - |
| 1777835210 | 24.44° C | 41% | 1011.1 hPa | 0 mm | - | 731 W/m² | - |
| 1777834907 | 24.44° C | 39% | 1011.1 hPa | 0 mm | - | 742 W/m² | - |
| 1777834603 | 25° C | 39% | 1011 hPa | 0 mm | - | 747 W/m² | - |
| 1777834298 | 24.44° C | 41% | 1011.2 hPa | 0 mm | - | 748 W/m² | - |
| 1777833994 | 23.89° C | 41% | 1011.3 hPa | 0 mm | - | 737 W/m² | - |
| 1777833690 | 24.44° C | 39% | 1011 hPa | 0 mm | - | 719 W/m² | - |
| 1777833387 | 23.89° C | 40% | 1011.3 hPa | 0 mm | - | 745 W/m² | - |
| 1777833084 | 23.89° C | 41% | 1011.4 hPa | 0 mm | - | 744 W/m² | - |
| 1777832782 | 23.89° C | 41% | 1011.4 hPa | 0 mm | - | 746 W/m² | - |
| 1777832481 | 23.89° C | 41% | 1011.5 hPa | 0 mm | - | 747 W/m² | - |
| 1777832177 | 23.33° C | 40% | 1011.7 hPa | 0 mm | - | 756 W/m² | - |
| 1777831874 | 23.33° C | 41% | 1012.1 hPa | 0 mm | - | 709 W/m² | - |
| 1777831571 | 23.89° C | 40% | 1011.6 hPa | 0 mm | - | 677 W/m² | - |
| 1777831269 | 23.33° C | 44% | 1011.6 hPa | 0 mm | - | 663 W/m² | - |
| 1777830965 | 22.78° C | 42% | 1011.9 hPa | 0 mm | - | 764 W/m² | - |
| 1777830663 | 22.78° C | 42% | 1012.1 hPa | 0 mm | - | 753 W/m² | - |
| 1777830359 | 22.78° C | 42% | 1012 hPa | 0 mm | - | 751 W/m² | - |
* Rain latest hour (hover to see other rain measurements)
** Current wind speed in m/s (hover to see current wind gust speed)